createdAt,value
2023-02-17T00:01:29.276Z,33.38
2023-02-17T00:03:55.923Z,39.70
2023-02-17T00:06:25.490Z,36.40
2023-02-17T00:08:52.052Z,35.15
2023-02-17T00:11:18.615Z,39.80
2023-02-17T00:13:45.343Z,40.28
2023-02-17T00:16:18.623Z,38.85
2023-02-17T00:18:46.208Z,35.97
2023-02-17T00:21:18.757Z,42.50
2023-02-17T00:23:46.499Z,42.28
2023-02-17T00:26:13.726Z,44.35
2023-02-17T00:28:40.621Z,44.58
2023-02-17T00:31:13.533Z,43.33
2023-02-17T00:33:40.211Z,38.70
2023-02-17T00:36:10.989Z,40.95
2023-02-17T00:38:37.461Z,38.28
2023-02-17T00:41:04.003Z,40.33
2023-02-17T00:43:30.411Z,37.70
2023-02-17T00:45:57.004Z,39.20
2023-02-17T00:48:23.792Z,30.50
2023-02-17T00:50:50.409Z,33.10
2023-02-17T00:53:16.937Z,35.38
2023-02-17T00:55:43.381Z,33.50
2023-02-17T00:58:09.773Z,33.47
2023-02-17T01:00:36.355Z,29.83
2023-02-17T01:03:02.804Z,34.20
2023-02-17T01:05:29.424Z,32.85
2023-02-17T01:07:56.100Z,29.42
2023-02-17T01:10:22.871Z,35.35
2023-02-17T01:12:49.295Z,38.03
2023-02-17T01:15:15.818Z,39.47
2023-02-17T01:17:42.354Z,34.03
2023-02-17T01:20:09.349Z,33.67
2023-02-17T01:22:38.376Z,35.28
2023-02-17T01:25:05.095Z,36.55
2023-02-17T01:27:31.659Z,47.00
2023-02-17T01:29:58.144Z,30.85
2023-02-17T01:32:24.572Z,34.92
2023-02-17T01:34:50.983Z,34.30
2023-02-17T01:37:17.416Z,35.88
2023-02-17T01:39:43.886Z,29.27
2023-02-17T01:42:19.947Z,30.95
2023-02-17T01:45:17.253Z,30.50
2023-02-17T01:47:50.735Z,27.23
2023-02-17T01:50:20.789Z,32.35
2023-02-17T01:52:47.254Z,30.20
2023-02-17T01:55:18.611Z,37.25
2023-02-17T01:57:47.265Z,30.77
2023-02-17T02:00:14.550Z,30.92
2023-02-17T02:02:45.963Z,33.47
2023-02-17T02:07:41.431Z,30.95
2023-02-17T02:10:09.548Z,39.90
2023-02-17T02:12:38.476Z,42.20
2023-02-17T02:15:27.096Z,40.03
2023-02-17T02:18:26.450Z,39.05
2023-02-17T02:21:30.576Z,35.92
2023-02-17T02:24:15.671Z,34.95
2023-02-17T02:27:00.875Z,43.63
2023-02-17T02:30:09.990Z,33.70
2023-02-17T02:32:48.531Z,43.10
2023-02-17T02:35:36.247Z,44.05
2023-02-17T02:38:12.173Z,38.45
2023-02-17T02:40:44.638Z,40.72
2023-02-17T02:43:12.284Z,38.00
2023-02-17T02:45:38.802Z,42.60
2023-02-17T02:48:05.238Z,39.00
2023-02-17T02:50:50.031Z,36.92
2023-02-17T02:53:19.365Z,44.72
2023-02-17T02:55:52.843Z,40.30
2023-02-17T02:58:56.796Z,36.45
2023-02-17T03:01:36.807Z,41.15
2023-02-17T03:04:18.721Z,34.65
2023-02-17T03:07:01.741Z,36.78
2023-02-17T03:09:29.862Z,38.78
2023-02-17T03:11:58.455Z,42.25
2023-02-17T03:14:26.518Z,34.38
2023-02-17T03:16:53.546Z,35.38
2023-02-17T03:19:23.428Z,33.47
2023-02-17T03:21:51.421Z,42.55
2023-02-17T03:24:19.130Z,35.28
2023-02-17T03:26:45.541Z,33.47
2023-02-17T03:29:11.954Z,31.48
2023-02-17T03:31:39.413Z,32.30
2023-02-17T03:34:06.638Z,28.83
2023-02-17T03:36:33.157Z,27.25
2023-02-17T03:38:59.760Z,27.05
2023-02-17T03:41:26.371Z,27.25
2023-02-17T03:43:52.939Z,28.83
2023-02-17T03:46:20.140Z,25.67
2023-02-17T03:48:46.753Z,29.52
2023-02-17T03:51:19.821Z,23.70
2023-02-17T03:53:46.785Z,27.67
2023-02-17T03:56:14.405Z,27.15
2023-02-17T03:58:41.703Z,26.13
2023-02-17T04:01:09.657Z,30.90
2023-02-17T04:03:37.096Z,29.00
2023-02-17T04:06:04.520Z,26.75
2023-02-17T04:08:31.710Z,28.05
2023-02-17T04:11:00.077Z,27.83
2023-02-17T04:13:26.867Z,29.00
2023-02-17T04:15:53.585Z,28.45
2023-02-17T04:18:20.708Z,26.38
2023-02-17T04:20:49.627Z,31.98
2023-02-17T04:23:16.736Z,27.08
2023-02-17T04:25:43.276Z,23.42
2023-02-17T04:28:10.259Z,24.67
2023-02-17T04:30:36.757Z,27.75
2023-02-17T04:33:04.136Z,30.88
2023-02-17T04:35:31.207Z,27.08
2023-02-17T04:37:57.645Z,25.33
2023-02-17T04:40:24.049Z,26.60
2023-02-17T04:42:50.486Z,26.13
2023-02-17T04:45:17.144Z,27.70
2023-02-17T04:47:43.557Z,25.60
2023-02-17T04:50:10.963Z,27.25
2023-02-17T04:52:37.687Z,25.75
2023-02-17T04:55:05.484Z,25.60
2023-02-17T04:57:32.699Z,21.02
2023-02-17T04:59:59.138Z,31.20
2023-02-17T05:02:28.409Z,29.88
2023-02-17T05:04:54.845Z,24.30
2023-02-17T05:07:21.432Z,29.98
2023-02-17T05:09:48.439Z,27.40
2023-02-17T05:12:14.860Z,28.13
2023-02-17T05:14:41.303Z,23.17
2023-02-17T05:17:07.799Z,29.27
2023-02-17T05:19:34.255Z,28.45
2023-02-17T05:22:00.932Z,34.33
2023-02-17T05:24:27.343Z,27.90
2023-02-17T05:26:53.771Z,24.50
2023-02-17T05:29:20.233Z,25.20
2023-02-17T05:31:46.754Z,22.42
2023-02-17T05:34:13.370Z,28.50
2023-02-17T05:36:39.770Z,24.88
2023-02-17T05:39:06.211Z,28.30
2023-02-17T05:41:32.638Z,29.98
2023-02-17T05:43:59.030Z,26.40
2023-02-17T05:46:25.445Z,21.80
2023-02-17T05:48:51.841Z,21.40
2023-02-17T05:51:18.284Z,34.80
2023-02-17T05:53:45.006Z,21.23
2023-02-17T05:56:11.461Z,21.33
2023-02-17T05:58:42.171Z,19.88
2023-02-17T06:01:17.946Z,21.73
2023-02-17T06:03:47.975Z,19.85
2023-02-17T06:06:18.379Z,18.83
2023-02-17T06:09:05.434Z,19.20
2023-02-17T06:11:55.161Z,19.92
2023-02-17T06:14:40.291Z,22.00
2023-02-17T06:17:24.282Z,19.73
2023-02-17T06:19:57.021Z,20.33
2023-02-17T06:22:32.880Z,19.02
2023-02-17T06:25:10.758Z,27.35
2023-02-17T06:27:37.898Z,20.70
2023-02-17T06:30:08.653Z,22.65
2023-02-17T06:32:50.628Z,26.60
2023-02-17T06:35:26.465Z,23.75
2023-02-17T06:37:59.633Z,22.45
2023-02-17T06:40:30.112Z,22.90
2023-02-17T06:43:06.121Z,25.88
2023-02-17T06:45:35.173Z,23.55
2023-02-17T06:48:01.637Z,23.88
2023-02-17T06:53:28.883Z,23.80
2023-02-17T06:55:56.520Z,20.00
2023-02-17T06:58:23.173Z,28.23
2023-02-17T07:00:49.555Z,24.52
2023-02-17T07:03:33.172Z,34.08
2023-02-17T07:06:00.143Z,29.15
2023-02-17T07:08:32.852Z,33.17
2023-02-17T07:11:10.356Z,28.08
2023-02-17T07:13:37.983Z,25.17
2023-02-17T07:16:05.353Z,41.67
2023-02-17T07:18:32.203Z,29.48
2023-02-17T07:21:09.086Z,25.27
2023-02-17T07:23:37.084Z,24.85
2023-02-17T07:26:11.273Z,26.17
2023-02-17T07:28:43.074Z,30.50
2023-02-17T07:31:13.360Z,30.27
2023-02-17T07:33:41.892Z,32.65
2023-02-17T07:36:11.295Z,33.28
2023-02-17T07:38:48.318Z,35.75
2023-02-17T07:41:20.405Z,31.67
2023-02-17T07:43:48.008Z,34.42
2023-02-17T07:46:15.893Z,33.83
2023-02-17T07:48:42.941Z,37.78
2023-02-17T07:51:14.643Z,34.47
2023-02-17T07:53:48.519Z,42.53
2023-02-17T07:56:16.201Z,45.78
2023-02-17T07:58:43.978Z,32.28
2023-02-17T08:01:20.612Z,40.92
2023-02-17T08:03:48.480Z,38.72
2023-02-17T08:06:18.744Z,41.13
2023-02-17T08:09:04.003Z,33.05
2023-02-17T08:11:50.142Z,38.40
2023-02-17T08:14:17.575Z,41.00
2023-02-17T08:16:44.176Z,41.25
2023-02-17T08:19:10.676Z,38.88
2023-02-17T08:21:37.289Z,37.50
2023-02-17T08:24:04.110Z,34.45
2023-02-17T08:26:30.570Z,33.80
2023-02-17T08:28:57.211Z,33.92
2023-02-17T08:31:32.209Z,36.38
2023-02-17T08:34:00.674Z,36.42
2023-02-17T08:36:28.815Z,36.22
2023-02-17T08:38:56.132Z,37.95
2023-02-17T08:41:32.187Z,37.20
2023-02-17T08:44:00.996Z,38.65
2023-02-17T08:46:28.566Z,39.90
2023-02-17T08:48:56.454Z,38.50
2023-02-17T08:51:28.446Z,46.28
2023-02-17T08:53:57.451Z,39.42
2023-02-17T08:56:25.251Z,37.55
2023-02-17T08:58:52.569Z,37.00
2023-02-17T09:01:20.469Z,32.92
2023-02-17T09:03:48.744Z,34.00
2023-02-17T09:06:15.790Z,39.53
2023-02-17T09:08:43.545Z,36.80
2023-02-17T09:11:10.445Z,37.97
2023-02-17T09:13:37.403Z,46.90
2023-02-17T09:16:04.958Z,36.65
2023-02-17T09:18:31.623Z,35.45
2023-02-17T09:21:00.385Z,35.08
2023-02-17T09:23:26.980Z,33.13
2023-02-17T09:26:05.510Z,35.30
2023-02-17T09:28:33.800Z,37.13
2023-02-17T09:31:10.056Z,36.58
2023-02-17T09:33:37.023Z,39.85
2023-02-17T09:36:05.657Z,31.95
2023-02-17T09:38:32.360Z,30.98
2023-02-17T09:41:36.036Z,35.28
2023-02-17T09:44:02.737Z,42.60
2023-02-17T09:46:37.662Z,32.97
2023-02-17T09:49:12.333Z,27.58
2023-02-17T09:51:53.787Z,31.65
2023-02-17T09:54:36.982Z,30.88
2023-02-17T09:57:05.483Z,33.55
2023-02-17T09:59:46.912Z,32.00
2023-02-17T10:02:24.317Z,28.90
2023-02-17T10:04:54.122Z,30.60
2023-02-17T10:07:25.699Z,35.30
2023-02-17T10:10:18.578Z,31.92
2023-02-17T10:12:50.159Z,35.30
2023-02-17T10:15:20.817Z,32.55
2023-02-17T10:18:05.552Z,30.63
2023-02-17T10:20:35.416Z,37.80
2023-02-17T10:23:07.163Z,38.17
2023-02-17T10:26:03.160Z,36.55
2023-02-17T10:29:16.554Z,34.83
2023-02-17T10:31:48.566Z,34.97
2023-02-17T10:34:37.705Z,33.75
2023-02-17T10:37:14.055Z,34.92
2023-02-17T10:39:52.508Z,35.25
2023-02-17T10:42:40.150Z,38.20
2023-02-17T10:45:16.065Z,33.25
2023-02-17T10:47:42.794Z,39.25
2023-02-17T10:50:19.598Z,32.50
2023-02-17T10:52:46.098Z,34.97
2023-02-17T10:55:29.702Z,31.70
2023-02-17T10:58:05.533Z,28.77
2023-02-17T11:00:32.173Z,29.75
2023-02-17T11:02:58.825Z,36.80
2023-02-17T11:05:26.701Z,25.30
2023-02-17T11:08:02.774Z,18.83
2023-02-17T11:10:40.056Z,22.95
2023-02-17T11:13:31.682Z,22.55
2023-02-17T11:18:32.292Z,19.30
2023-02-17T11:21:08.936Z,22.50
2023-02-17T11:23:36.379Z,22.88
2023-02-17T11:26:10.582Z,19.10
2023-02-17T11:28:37.503Z,25.00
2023-02-17T11:31:04.992Z,18.85
2023-02-17T11:33:38.336Z,17.65
2023-02-17T11:36:06.937Z,19.02
2023-02-17T11:38:41.367Z,17.50
2023-02-17T11:41:08.415Z,20.52
2023-02-17T11:43:36.015Z,19.63
2023-02-17T11:46:40.684Z,20.10
2023-02-17T11:49:25.373Z,18.55
2023-02-17T11:52:17.349Z,17.17
2023-02-17T11:54:58.010Z,18.30
2023-02-17T11:57:33.660Z,18.58
2023-02-17T12:00:14.587Z,17.45
2023-02-17T12:02:52.804Z,19.48
2023-02-17T12:05:27.449Z,19.17
2023-02-17T12:08:12.422Z,20.15
2023-02-17T12:11:10.796Z,19.70
2023-02-17T12:13:47.441Z,19.52
2023-02-17T12:16:43.961Z,14.43
2023-02-17T12:19:31.339Z,21.60
2023-02-17T12:22:22.364Z,15.00
2023-02-17T12:25:04.116Z,14.48
2023-02-17T12:27:58.649Z,14.13
2023-02-17T12:30:43.688Z,16.30
2023-02-17T12:33:40.475Z,18.38
2023-02-17T12:36:15.565Z,18.80
2023-02-17T12:38:47.730Z,19.98
2023-02-17T12:41:26.781Z,19.33
2023-02-17T12:44:01.971Z,17.15
2023-02-17T12:46:48.781Z,16.35
2023-02-17T12:49:54.499Z,15.35
2023-02-17T12:52:36.685Z,17.15
2023-02-17T12:55:12.950Z,13.35
2023-02-17T12:57:42.308Z,15.18
2023-02-17T13:00:21.234Z,18.80
2023-02-17T13:02:48.344Z,18.38
2023-02-17T13:05:27.538Z,18.63
2023-02-17T13:08:07.319Z,18.05
2023-02-17T13:10:39.454Z,15.23
2023-02-17T13:13:28.212Z,14.05
2023-02-17T13:16:07.341Z,16.67
2023-02-17T13:18:36.701Z,14.13
2023-02-17T13:21:16.930Z,14.85
2023-02-17T13:23:47.239Z,14.60
2023-02-17T13:26:17.765Z,17.58
2023-02-17T13:28:51.539Z,12.65
2023-02-17T13:31:24.294Z,18.05
2023-02-17T13:33:55.637Z,15.70
2023-02-17T13:36:28.025Z,15.35
2023-02-17T13:39:00.348Z,15.70
2023-02-17T13:41:29.403Z,16.13
2023-02-17T13:43:56.042Z,12.95
2023-02-17T13:46:26.631Z,13.10
2023-02-17T13:49:02.838Z,16.85
2023-02-17T13:51:31.605Z,15.60
2023-02-17T13:54:05.107Z,15.57
2023-02-17T13:56:31.651Z,14.32
2023-02-17T13:59:18.146Z,17.85
2023-02-17T14:01:46.414Z,19.25
2023-02-17T14:04:31.696Z,18.45
2023-02-17T14:07:01.000Z,16.50
2023-02-17T14:09:31.057Z,17.60
2023-02-17T14:12:00.939Z,17.65
2023-02-17T14:14:39.095Z,16.30
2023-02-17T14:17:09.070Z,15.77
2023-02-17T14:19:43.968Z,16.40
2023-02-17T14:22:32.337Z,14.32
2023-02-17T14:25:09.165Z,19.00
2023-02-17T14:27:48.179Z,18.55
2023-02-17T14:30:35.019Z,13.80
2023-02-17T14:33:17.790Z,17.05
2023-02-17T14:36:02.748Z,17.98
2023-02-17T14:38:32.019Z,20.60
2023-02-17T14:41:00.457Z,18.02
2023-02-17T14:43:27.587Z,16.38
2023-02-17T14:45:54.363Z,19.50
2023-02-17T14:48:24.952Z,17.85
2023-02-17T14:50:54.135Z,20.98
2023-02-17T14:53:30.497Z,19.30
2023-02-17T14:56:04.646Z,20.67
2023-02-17T14:58:31.540Z,20.10
2023-02-17T15:00:58.475Z,18.58
2023-02-17T15:03:25.014Z,24.58
2023-02-17T15:05:58.035Z,18.35
2023-02-17T15:08:34.060Z,20.75
2023-02-17T15:11:01.496Z,19.38
2023-02-17T15:13:28.057Z,19.70
2023-02-17T15:15:54.689Z,20.70
2023-02-17T15:18:21.271Z,19.20
2023-02-17T15:20:50.232Z,24.13
2023-02-17T15:23:20.800Z,19.55
2023-02-17T15:25:48.156Z,16.10
2023-02-17T15:28:17.203Z,22.10
2023-02-17T15:30:50.593Z,27.85
2023-02-17T15:33:17.461Z,21.70
2023-02-17T15:35:51.200Z,18.02
2023-02-17T15:38:17.650Z,20.52
2023-02-17T15:40:44.106Z,16.55
2023-02-17T15:43:16.822Z,18.52
2023-02-17T15:45:43.436Z,19.33
2023-02-17T15:48:17.942Z,20.80
2023-02-17T15:50:44.396Z,20.85
2023-02-17T15:53:10.927Z,20.00
2023-02-17T15:55:40.264Z,21.58
2023-02-17T15:58:13.902Z,15.68
2023-02-17T16:00:40.484Z,18.75
2023-02-17T16:03:06.980Z,25.42
2023-02-17T16:05:33.573Z,22.70
2023-02-17T16:08:00.306Z,20.38
2023-02-17T16:10:29.766Z,18.95
2023-02-17T16:12:58.262Z,28.08
2023-02-17T16:15:26.202Z,23.00
2023-02-17T16:17:52.777Z,22.58
2023-02-17T16:20:24.717Z,28.63
2023-02-17T16:22:54.393Z,33.95
2023-02-17T16:25:22.042Z,30.92
2023-02-17T16:27:51.067Z,22.45
2023-02-17T16:30:33.085Z,22.67
2023-02-17T16:33:00.000Z,18.63
2023-02-17T16:35:29.197Z,18.70
2023-02-17T16:38:04.815Z,21.35
2023-02-17T16:40:33.647Z,22.40
2023-02-17T16:43:00.248Z,19.77
2023-02-17T16:45:31.967Z,18.60
2023-02-17T16:48:00.173Z,21.70
2023-02-17T16:50:35.136Z,24.48
2023-02-17T16:53:05.840Z,22.95
2023-02-17T16:55:35.536Z,29.20
2023-02-17T16:58:03.202Z,40.88
2023-02-17T17:00:32.666Z,28.70
2023-02-17T17:02:59.654Z,34.35
2023-02-17T17:05:29.099Z,37.75
2023-02-17T17:07:56.442Z,65.47
2023-02-17T17:10:29.885Z,39.60
2023-02-17T17:12:56.673Z,42.95
2023-02-17T17:15:24.123Z,42.10
2023-02-17T17:17:57.644Z,35.72
2023-02-17T17:20:31.037Z,33.63
2023-02-17T17:23:05.964Z,33.70
2023-02-17T17:25:35.236Z,47.33
2023-02-17T17:28:01.652Z,36.50
2023-02-17T17:30:32.538Z,33.13
2023-02-17T17:32:59.316Z,48.97
2023-02-17T17:35:27.068Z,43.88
2023-02-17T17:37:53.827Z,40.10
2023-02-17T17:40:23.482Z,42.40
2023-02-17T17:42:50.523Z,36.88
2023-02-17T17:45:17.320Z,37.80
2023-02-17T17:47:44.529Z,115.82
2023-02-17T17:50:20.306Z,88.50
2023-02-17T17:52:47.379Z,87.00
2023-02-17T17:55:14.506Z,52.50
2023-02-17T17:57:41.800Z,50.95
2023-02-17T18:00:14.768Z,47.60
2023-02-17T18:02:41.250Z,48.08
2023-02-17T18:05:08.163Z,41.78
2023-02-17T18:07:37.365Z,50.15
2023-02-17T18:10:06.976Z,44.80
2023-02-17T18:12:35.257Z,38.70
2023-02-17T18:15:06.946Z,42.78
2023-02-17T18:17:36.584Z,38.53
2023-02-17T18:20:03.572Z,39.90
2023-02-17T18:22:30.034Z,44.90
2023-02-17T18:24:56.475Z,43.47
2023-02-17T18:27:23.174Z,41.92
2023-02-17T18:29:49.856Z,41.58
2023-02-17T18:32:16.276Z,39.55
2023-02-17T18:34:42.771Z,48.78
2023-02-17T18:37:09.252Z,51.35
2023-02-17T18:39:35.648Z,49.58
2023-02-17T18:42:02.130Z,62.45
2023-02-17T18:44:28.526Z,57.72
2023-02-17T18:46:54.939Z,60.15
2023-02-17T18:49:21.336Z,49.47
2023-02-17T18:51:47.771Z,53.97
2023-02-17T18:54:14.723Z,55.28
2023-02-17T18:56:41.131Z,66.90
2023-02-17T18:59:07.591Z,61.05
2023-02-17T19:01:38.460Z,60.83
2023-02-17T19:04:05.857Z,50.30
2023-02-17T19:06:34.790Z,44.40
2023-02-17T19:09:04.025Z,49.35
2023-02-17T19:11:31.316Z,43.70
2023-02-17T19:13:59.398Z,37.75
2023-02-17T19:16:28.630Z,43.80
2023-02-17T19:18:56.100Z,49.97
2023-02-17T19:21:23.052Z,47.03
2023-02-17T19:23:50.378Z,50.55
2023-02-17T19:26:18.273Z,59.63
2023-02-17T19:28:45.353Z,47.63
2023-02-17T19:31:15.254Z,52.72
2023-02-17T19:33:42.923Z,48.95
2023-02-17T19:36:12.066Z,49.28
2023-02-17T19:38:39.308Z,51.22
2023-02-17T19:41:08.418Z,46.88
2023-02-17T19:43:34.812Z,49.03
2023-02-17T19:46:02.013Z,53.63
2023-02-17T19:48:28.634Z,44.13
2023-02-17T19:51:00.004Z,41.85
2023-02-17T19:55:53.134Z,46.10
2023-02-17T19:58:19.575Z,50.20
2023-02-17T20:00:46.052Z,47.65
2023-02-17T20:03:12.475Z,52.75
2023-02-17T20:05:40.442Z,53.00
2023-02-17T20:08:06.924Z,45.85
2023-02-17T20:10:33.726Z,57.42
2023-02-17T20:13:00.348Z,58.70
2023-02-17T20:15:26.824Z,55.63
2023-02-17T20:17:53.251Z,45.78
2023-02-17T20:20:19.737Z,43.35
2023-02-17T20:22:46.134Z,40.42
2023-02-17T20:25:12.597Z,44.75
2023-02-17T20:27:39.012Z,50.20
2023-02-17T20:30:06.338Z,50.75
2023-02-17T20:32:32.773Z,51.08
2023-02-17T20:34:59.249Z,42.30
2023-02-17T20:37:25.632Z,41.22
2023-02-17T20:39:52.060Z,46.97
2023-02-17T20:42:18.522Z,47.85
2023-02-17T20:44:45.739Z,44.60
2023-02-17T20:47:12.308Z,46.28
2023-02-17T20:49:38.726Z,52.28
2023-02-17T20:52:05.795Z,40.95
2023-02-17T20:54:32.408Z,39.95
2023-02-17T20:57:01.024Z,57.33
2023-02-17T20:59:27.498Z,42.25
2023-02-17T21:01:53.996Z,40.55
2023-02-17T21:04:20.402Z,41.55
2023-02-17T21:06:47.389Z,40.92
2023-02-17T21:09:17.001Z,44.80
2023-02-17T21:11:44.361Z,40.78
2023-02-17T21:14:11.517Z,40.78
2023-02-17T21:16:38.331Z,43.78
2023-02-17T21:19:05.342Z,40.95
2023-02-17T21:21:32.411Z,37.05
2023-02-17T21:23:59.837Z,41.38
2023-02-17T21:26:26.615Z,44.78
2023-02-17T21:28:54.447Z,41.53
2023-02-17T21:31:21.042Z,40.03
2023-02-17T21:33:47.554Z,43.28
2023-02-17T21:36:17.079Z,39.60
2023-02-17T21:38:44.111Z,36.08
2023-02-17T21:41:17.186Z,49.47
2023-02-17T21:44:02.464Z,48.00
2023-02-17T21:46:30.264Z,82.18
2023-02-17T21:48:59.134Z,72.15
2023-02-17T21:51:26.182Z,52.10
2023-02-17T21:53:53.106Z,39.75
2023-02-17T21:56:21.104Z,35.22
2023-02-17T21:58:49.413Z,38.22
2023-02-17T22:01:17.012Z,47.20
2023-02-17T22:03:43.665Z,34.35
2023-02-17T22:06:18.698Z,39.33
2023-02-17T22:08:45.862Z,30.85
2023-02-17T22:11:24.228Z,34.50
2023-02-17T22:13:57.954Z,32.55
2023-02-17T22:16:25.235Z,37.67
2023-02-17T22:18:52.328Z,37.42
2023-02-17T22:21:19.088Z,29.77
2023-02-17T22:23:45.682Z,27.98
2023-02-17T22:26:16.579Z,27.10
2023-02-17T22:28:43.561Z,31.42
2023-02-17T22:31:13.586Z,34.58
2023-02-17T22:33:40.091Z,36.78
2023-02-17T22:36:09.652Z,34.40
2023-02-17T22:38:36.957Z,32.90
2023-02-17T22:41:08.817Z,30.05
2023-02-17T22:43:36.956Z,33.58
2023-02-17T22:46:04.404Z,36.78
2023-02-17T22:48:32.442Z,32.60
2023-02-17T22:51:03.780Z,33.15
2023-02-17T22:53:30.175Z,30.20
2023-02-17T22:55:57.936Z,31.08
2023-02-17T22:58:26.191Z,36.63
2023-02-17T23:01:11.756Z,34.75
2023-02-17T23:03:38.470Z,32.40
2023-02-17T23:06:11.195Z,29.73
2023-02-17T23:08:38.510Z,25.83
2023-02-17T23:11:06.790Z,26.35
2023-02-17T23:13:36.911Z,29.45
2023-02-17T23:16:04.820Z,25.90
2023-02-17T23:18:33.219Z,26.10
2023-02-17T23:21:06.924Z,26.40
2023-02-17T23:23:33.337Z,29.58
2023-02-17T23:25:59.771Z,20.90
2023-02-17T23:28:26.872Z,26.52
2023-02-17T23:30:54.020Z,21.60
2023-02-17T23:33:22.766Z,21.65
2023-02-17T23:35:49.368Z,20.92
2023-02-17T23:38:18.393Z,28.88
2023-02-17T23:40:49.863Z,27.52
2023-02-17T23:45:42.854Z,24.20
2023-02-17T23:48:09.750Z,28.02
2023-02-17T23:50:36.299Z,22.38
2023-02-17T23:53:02.768Z,25.08
2023-02-17T23:55:29.215Z,23.60
2023-02-17T23:57:55.664Z,22.23
